sensor_id;sensor_type;location;lat;lon;timestamp;P1;durP1;ratioP1;P2;durP2;ratioP2
64029;SDS011;50277;52.064;4.492;2024-03-25T00:00:39;18.52;;;3.13;;
64029;SDS011;50277;52.064;4.492;2024-03-25T00:03:05;20.73;;;2.95;;
64029;SDS011;50277;52.064;4.492;2024-03-25T00:05:30;18.50;;;3.70;;
64029;SDS011;50277;52.064;4.492;2024-03-25T00:07:57;18.83;;;3.72;;
64029;SDS011;50277;52.064;4.492;2024-03-25T00:10:23;8.75;;;2.20;;
64029;SDS011;50277;52.064;4.492;2024-03-25T00:12:48;12.82;;;3.00;;
64029;SDS011;50277;52.064;4.492;2024-03-25T00:15:17;15.95;;;3.15;;
64029;SDS011;50277;52.064;4.492;2024-03-25T00:17:44;22.67;;;3.20;;
64029;SDS011;50277;52.064;4.492;2024-03-25T00:20:10;25.90;;;4.22;;
64029;SDS011;50277;52.064;4.492;2024-03-25T00:22:36;17.27;;;2.85;;
64029;SDS011;50277;52.064;4.492;2024-03-25T00:25:01;12.20;;;2.75;;
64029;SDS011;50277;52.064;4.492;2024-03-25T00:27:26;16.50;;;3.28;;
64029;SDS011;50277;52.064;4.492;2024-03-25T00:29:53;15.55;;;2.55;;
64029;SDS011;50277;52.064;4.492;2024-03-25T00:32:18;18.10;;;3.33;;
64029;SDS011;50277;52.064;4.492;2024-03-25T00:34:43;15.00;;;4.10;;
64029;SDS011;50277;52.064;4.492;2024-03-25T00:37:08;17.88;;;2.85;;
64029;SDS011;50277;52.064;4.492;2024-03-25T00:39:34;16.20;;;3.75;;
64029;SDS011;50277;52.064;4.492;2024-03-25T00:42:00;13.90;;;3.35;;
64029;SDS011;50277;52.064;4.492;2024-03-25T00:44:25;19.55;;;3.00;;
64029;SDS011;50277;52.064;4.492;2024-03-25T00:46:50;21.38;;;3.35;;
64029;SDS011;50277;52.064;4.492;2024-03-25T00:49:16;17.73;;;2.88;;
64029;SDS011;50277;52.064;4.492;2024-03-25T00:51:41;16.10;;;2.67;;
64029;SDS011;50277;52.064;4.492;2024-03-25T00:54:07;14.45;;;2.90;;
64029;SDS011;50277;52.064;4.492;2024-03-25T00:56:32;16.48;;;3.22;;
64029;SDS011;50277;52.064;4.492;2024-03-25T00:58:58;10.05;;;2.42;;
64029;SDS011;50277;52.064;4.492;2024-03-25T01:01:27;17.02;;;3.13;;
64029;SDS011;50277;52.064;4.492;2024-03-25T01:03:56;18.13;;;4.07;;
64029;SDS011;50277;52.064;4.492;2024-03-25T01:06:22;22.65;;;3.38;;
64029;SDS011;50277;52.064;4.492;2024-03-25T01:08:47;19.63;;;3.35;;
64029;SDS011;50277;52.064;4.492;2024-03-25T01:11:13;14.00;;;2.75;;
64029;SDS011;50277;52.064;4.492;2024-03-25T01:13:38;23.80;;;3.10;;
64029;SDS011;50277;52.064;4.492;2024-03-25T01:16:03;18.55;;;3.63;;
64029;SDS011;50277;52.064;4.492;2024-03-25T01:18:29;16.27;;;2.60;;
64029;SDS011;50277;52.064;4.492;2024-03-25T01:20:54;10.05;;;2.80;;
64029;SDS011;50277;52.064;4.492;2024-03-25T01:23:20;14.50;;;2.95;;
64029;SDS011;50277;52.064;4.492;2024-03-25T01:25:45;12.77;;;2.88;;
64029;SDS011;50277;52.064;4.492;2024-03-25T01:28:10;12.02;;;2.53;;
64029;SDS011;50277;52.064;4.492;2024-03-25T01:30:36;17.35;;;3.10;;
64029;SDS011;50277;52.064;4.492;2024-03-25T01:33:04;19.30;;;3.55;;
64029;SDS011;50277;52.064;4.492;2024-03-25T01:35:30;16.80;;;3.08;;
64029;SDS011;50277;52.064;4.492;2024-03-25T01:37:55;13.65;;;2.72;;
64029;SDS011;50277;52.064;4.492;2024-03-25T01:40:21;14.32;;;2.58;;
64029;SDS011;50277;52.064;4.492;2024-03-25T01:42:59;16.90;;;2.95;;
64029;SDS011;50277;52.064;4.492;2024-03-25T01:47:51;17.60;;;4.07;;
64029;SDS011;50277;52.064;4.492;2024-03-25T01:50:17;15.68;;;2.80;;
64029;SDS011;50277;52.064;4.492;2024-03-25T01:52:42;15.82;;;2.67;;
64029;SDS011;50277;52.064;4.492;2024-03-25T01:55:08;12.45;;;2.60;;
64029;SDS011;50277;52.064;4.492;2024-03-25T01:57:39;16.75;;;2.92;;
64029;SDS011;50277;52.064;4.492;2024-03-25T02:00:05;11.02;;;2.30;;
64029;SDS011;50277;52.064;4.492;2024-03-25T02:02:31;11.65;;;2.28;;
64029;SDS011;50277;52.064;4.492;2024-03-25T02:04:58;18.17;;;3.30;;
64029;SDS011;50277;52.064;4.492;2024-03-25T02:07:23;14.70;;;2.30;;
64029;SDS011;50277;52.064;4.492;2024-03-25T02:09:50;16.75;;;3.22;;
64029;SDS011;50277;52.064;4.492;2024-03-25T02:12:17;21.90;;;3.10;;
64029;SDS011;50277;52.064;4.492;2024-03-25T02:14:42;12.63;;;2.50;;
64029;SDS011;50277;52.064;4.492;2024-03-25T02:17:08;15.23;;;3.13;;
64029;SDS011;50277;52.064;4.492;2024-03-25T02:19:34;14.57;;;2.92;;
64029;SDS011;50277;52.064;4.492;2024-03-25T02:22:00;13.40;;;2.50;;
64029;SDS011;50277;52.064;4.492;2024-03-25T02:24:25;22.35;;;3.15;;
64029;SDS011;50277;52.064;4.492;2024-03-25T02:26:51;17.58;;;3.15;;
64029;SDS011;50277;52.064;4.492;2024-03-25T02:29:17;19.70;;;3.17;;
64029;SDS011;50277;52.064;4.492;2024-03-25T02:31:42;19.77;;;3.33;;
64029;SDS011;50277;52.064;4.492;2024-03-25T02:34:07;10.40;;;2.50;;
64029;SDS011;50277;52.064;4.492;2024-03-25T02:36:32;14.77;;;2.80;;
64029;SDS011;50277;52.064;4.492;2024-03-25T02:38:58;12.20;;;2.60;;
64029;SDS011;50277;52.064;4.492;2024-03-25T02:41:24;6.95;;;2.10;;
64029;SDS011;50277;52.064;4.492;2024-03-25T02:43:49;12.93;;;3.22;;
64029;SDS011;50277;52.064;4.492;2024-03-25T02:46:15;16.88;;;2.95;;
64029;SDS011;50277;52.064;4.492;2024-03-25T02:48:40;10.60;;;2.53;;
64029;SDS011;50277;52.064;4.492;2024-03-25T02:51:05;18.88;;;3.75;;
64029;SDS011;50277;52.064;4.492;2024-03-25T02:53:30;19.38;;;2.63;;
64029;SDS011;50277;52.064;4.492;2024-03-25T02:55:56;20.00;;;4.30;;
64029;SDS011;50277;52.064;4.492;2024-03-25T02:58:21;13.32;;;2.78;;
64029;SDS011;50277;52.064;4.492;2024-03-25T03:00:47;11.90;;;3.03;;
64029;SDS011;50277;52.064;4.492;2024-03-25T03:03:12;11.32;;;3.38;;
64029;SDS011;50277;52.064;4.492;2024-03-25T03:05:38;14.93;;;2.88;;
64029;SDS011;50277;52.064;4.492;2024-03-25T03:08:03;16.70;;;2.97;;
64029;SDS011;50277;52.064;4.492;2024-03-25T03:10:28;13.32;;;3.70;;
64029;SDS011;50277;52.064;4.492;2024-03-25T03:12:54;19.70;;;3.88;;
64029;SDS011;50277;52.064;4.492;2024-03-25T03:15:19;17.75;;;3.65;;
64029;SDS011;50277;52.064;4.492;2024-03-25T03:17:45;20.90;;;3.17;;
64029;SDS011;50277;52.064;4.492;2024-03-25T03:20:10;18.20;;;2.58;;
64029;SDS011;50277;52.064;4.492;2024-03-25T03:22:36;20.13;;;3.10;;
64029;SDS011;50277;52.064;4.492;2024-03-25T03:25:01;18.55;;;2.65;;
64029;SDS011;50277;52.064;4.492;2024-03-25T03:27:27;27.48;;;3.50;;
64029;SDS011;50277;52.064;4.492;2024-03-25T03:29:52;12.95;;;2.45;;
64029;SDS011;50277;52.064;4.492;2024-03-25T03:32:18;18.05;;;2.72;;
64029;SDS011;50277;52.064;4.492;2024-03-25T03:34:43;12.50;;;2.40;;
64029;SDS011;50277;52.064;4.492;2024-03-25T03:37:08;19.02;;;3.35;;
64029;SDS011;50277;52.064;4.492;2024-03-25T03:39:34;21.27;;;3.65;;
64029;SDS011;50277;52.064;4.492;2024-03-25T03:41:59;18.83;;;3.00;;
64029;SDS011;50277;52.064;4.492;2024-03-25T03:44:24;13.48;;;3.08;;
64029;SDS011;50277;52.064;4.492;2024-03-25T03:46:50;23.23;;;4.07;;
64029;SDS011;50277;52.064;4.492;2024-03-25T03:49:15;12.63;;;2.92;;
64029;SDS011;50277;52.064;4.492;2024-03-25T03:51:40;14.00;;;2.67;;
64029;SDS011;50277;52.064;4.492;2024-03-25T03:54:06;13.60;;;2.80;;
64029;SDS011;50277;52.064;4.492;2024-03-25T03:56:31;18.10;;;3.28;;
64029;SDS011;50277;52.064;4.492;2024-03-25T03:58:56;17.23;;;3.20;;
64029;SDS011;50277;52.064;4.492;2024-03-25T04:01:22;20.88;;;4.05;;
64029;SDS011;50277;52.064;4.492;2024-03-25T04:03:47;16.50;;;2.42;;
64029;SDS011;50277;52.064;4.492;2024-03-25T04:06:12;10.68;;;2.58;;
64029;SDS011;50277;52.064;4.492;2024-03-25T04:08:38;22.98;;;2.92;;
64029;SDS011;50277;52.064;4.492;2024-03-25T04:11:07;15.05;;;2.83;;
64029;SDS011;50277;52.064;4.492;2024-03-25T04:13:33;16.17;;;2.92;;
64029;SDS011;50277;52.064;4.492;2024-03-25T04:16:02;17.92;;;3.70;;
64029;SDS011;50277;52.064;4.492;2024-03-25T04:18:29;17.45;;;3.47;;
64029;SDS011;50277;52.064;4.492;2024-03-25T04:20:55;19.67;;;3.67;;
64029;SDS011;50277;52.064;4.492;2024-03-25T04:23:21;13.20;;;2.90;;
64029;SDS011;50277;52.064;4.492;2024-03-25T04:25:46;16.67;;;3.58;;
64029;SDS011;50277;52.064;4.492;2024-03-25T04:28:11;17.90;;;3.13;;
64029;SDS011;50277;52.064;4.492;2024-03-25T04:30:37;15.82;;;3.25;;
64029;SDS011;50277;52.064;4.492;2024-03-25T04:33:02;17.42;;;3.58;;
64029;SDS011;50277;52.064;4.492;2024-03-25T04:35:27;24.52;;;3.47;;
64029;SDS011;50277;52.064;4.492;2024-03-25T04:37:53;19.40;;;3.80;;
64029;SDS011;50277;52.064;4.492;2024-03-25T04:40:20;12.00;;;3.13;;
64029;SDS011;50277;52.064;4.492;2024-03-25T04:42:45;14.35;;;3.10;;
64029;SDS011;50277;52.064;4.492;2024-03-25T04:45:11;14.25;;;3.22;;
64029;SDS011;50277;52.064;4.492;2024-03-25T04:47:37;19.17;;;3.58;;
64029;SDS011;50277;52.064;4.492;2024-03-25T04:50:02;15.77;;;4.05;;
64029;SDS011;50277;52.064;4.492;2024-03-25T04:52:28;15.85;;;3.28;;
64029;SDS011;50277;52.064;4.492;2024-03-25T04:54:53;18.35;;;3.03;;
64029;SDS011;50277;52.064;4.492;2024-03-25T04:57:19;15.90;;;3.03;;
64029;SDS011;50277;52.064;4.492;2024-03-25T04:59:44;13.82;;;3.03;;
64029;SDS011;50277;52.064;4.492;2024-03-25T05:02:10;19.30;;;3.60;;
64029;SDS011;50277;52.064;4.492;2024-03-25T05:04:35;14.85;;;3.15;;
64029;SDS011;50277;52.064;4.492;2024-03-25T05:07:01;9.65;;;2.92;;
64029;SDS011;50277;52.064;4.492;2024-03-25T05:09:26;18.20;;;3.85;;
64029;SDS011;50277;52.064;4.492;2024-03-25T05:11:51;21.33;;;5.35;;
64029;SDS011;50277;52.064;4.492;2024-03-25T05:14:17;18.23;;;3.38;;
64029;SDS011;50277;52.064;4.492;2024-03-25T05:16:43;12.43;;;3.35;;
64029;SDS011;50277;52.064;4.492;2024-03-25T05:19:08;20.45;;;3.80;;
64029;SDS011;50277;52.064;4.492;2024-03-25T05:21:33;15.05;;;3.15;;
64029;SDS011;50277;52.064;4.492;2024-03-25T05:23:59;21.38;;;3.47;;
64029;SDS011;50277;52.064;4.492;2024-03-25T05:26:24;18.00;;;4.15;;
64029;SDS011;50277;52.064;4.492;2024-03-25T05:28:53;13.27;;;2.83;;
64029;SDS011;50277;52.064;4.492;2024-03-25T05:31:19;17.30;;;3.08;;
64029;SDS011;50277;52.064;4.492;2024-03-25T05:33:44;15.73;;;3.00;;
64029;SDS011;50277;52.064;4.492;2024-03-25T05:36:09;17.23;;;4.25;;
64029;SDS011;50277;52.064;4.492;2024-03-25T05:38:35;19.95;;;3.78;;
64029;SDS011;50277;52.064;4.492;2024-03-25T05:41:00;26.50;;;4.18;;
64029;SDS011;50277;52.064;4.492;2024-03-25T05:43:25;14.77;;;3.83;;
64029;SDS011;50277;52.064;4.492;2024-03-25T05:45:51;16.40;;;3.28;;
64029;SDS011;50277;52.064;4.492;2024-03-25T05:48:18;28.13;;;4.10;;
64029;SDS011;50277;52.064;4.492;2024-03-25T05:50:43;16.38;;;3.25;;
64029;SDS011;50277;52.064;4.492;2024-03-25T05:53:09;12.65;;;3.30;;
64029;SDS011;50277;52.064;4.492;2024-03-25T05:55:34;10.25;;;3.13;;
64029;SDS011;50277;52.064;4.492;2024-03-25T05:57:59;17.02;;;3.65;;
64029;SDS011;50277;52.064;4.492;2024-03-25T06:00:25;18.23;;;4.43;;
64029;SDS011;50277;52.064;4.492;2024-03-25T06:02:51;13.23;;;3.53;;
64029;SDS011;50277;52.064;4.492;2024-03-25T06:05:18;21.02;;;4.28;;
64029;SDS011;50277;52.064;4.492;2024-03-25T06:07:43;15.85;;;4.03;;
64029;SDS011;50277;52.064;4.492;2024-03-25T06:10:09;14.65;;;4.28;;
64029;SDS011;50277;52.064;4.492;2024-03-25T06:12:34;14.43;;;4.00;;
64029;SDS011;50277;52.064;4.492;2024-03-25T06:14:59;16.80;;;4.07;;
64029;SDS011;50277;52.064;4.492;2024-03-25T06:17:25;14.80;;;3.72;;
64029;SDS011;50277;52.064;4.492;2024-03-25T06:19:50;14.30;;;3.70;;
64029;SDS011;50277;52.064;4.492;2024-03-25T06:22:16;24.10;;;4.85;;
64029;SDS011;50277;52.064;4.492;2024-03-25T06:24:42;15.85;;;3.78;;
64029;SDS011;50277;52.064;4.492;2024-03-25T06:27:08;21.33;;;4.60;;
64029;SDS011;50277;52.064;4.492;2024-03-25T06:29:33;19.10;;;4.28;;
64029;SDS011;50277;52.064;4.492;2024-03-25T06:32:00;13.60;;;4.22;;
64029;SDS011;50277;52.064;4.492;2024-03-25T06:34:44;19.50;;;5.47;;
64029;SDS011;50277;52.064;4.492;2024-03-25T06:37:09;16.73;;;4.75;;
64029;SDS011;50277;52.064;4.492;2024-03-25T06:39:34;13.82;;;4.55;;
64029;SDS011;50277;52.064;4.492;2024-03-25T06:42:00;24.02;;;4.55;;
64029;SDS011;50277;52.064;4.492;2024-03-25T06:44:26;21.48;;;4.85;;
64029;SDS011;50277;52.064;4.492;2024-03-25T06:46:51;27.23;;;5.22;;
64029;SDS011;50277;52.064;4.492;2024-03-25T06:49:16;23.75;;;5.05;;
64029;SDS011;50277;52.064;4.492;2024-03-25T06:51:42;21.80;;;5.32;;
64029;SDS011;50277;52.064;4.492;2024-03-25T06:54:07;19.67;;;5.20;;
64029;SDS011;50277;52.064;4.492;2024-03-25T06:56:32;18.65;;;5.57;;
64029;SDS011;50277;52.064;4.492;2024-03-25T06:58:58;18.23;;;5.72;;
64029;SDS011;50277;52.064;4.492;2024-03-25T07:01:23;18.48;;;4.70;;
64029;SDS011;50277;52.064;4.492;2024-03-25T07:03:48;18.05;;;4.80;;
64029;SDS011;50277;52.064;4.492;2024-03-25T07:06:14;17.77;;;4.50;;
64029;SDS011;50277;52.064;4.492;2024-03-25T07:08:39;17.92;;;5.32;;
64029;SDS011;50277;52.064;4.492;2024-03-25T07:11:04;19.33;;;5.38;;
64029;SDS011;50277;52.064;4.492;2024-03-25T07:13:30;15.93;;;4.55;;
64029;SDS011;50277;52.064;4.492;2024-03-25T07:15:55;21.20;;;4.10;;
64029;SDS011;50277;52.064;4.492;2024-03-25T07:18:20;23.80;;;5.20;;
64029;SDS011;50277;52.064;4.492;2024-03-25T07:20:46;17.75;;;4.80;;
64029;SDS011;50277;52.064;4.492;2024-03-25T07:23:11;18.15;;;5.07;;
64029;SDS011;50277;52.064;4.492;2024-03-25T07:25:37;16.83;;;4.20;;
64029;SDS011;50277;52.064;4.492;2024-03-25T07:28:03;23.10;;;5.50;;
64029;SDS011;50277;52.064;4.492;2024-03-25T07:30:28;23.10;;;5.03;;
64029;SDS011;50277;52.064;4.492;2024-03-25T07:32:57;18.92;;;4.88;;
64029;SDS011;50277;52.064;4.492;2024-03-25T07:35:23;20.60;;;5.32;;
64029;SDS011;50277;52.064;4.492;2024-03-25T07:37:49;21.45;;;5.95;;
64029;SDS011;50277;52.064;4.492;2024-03-25T07:40:16;12.05;;;4.70;;
64029;SDS011;50277;52.064;4.492;2024-03-25T07:45:10;16.58;;;4.25;;
64029;SDS011;50277;52.064;4.492;2024-03-25T07:47:36;19.60;;;4.88;;
64029;SDS011;50277;52.064;4.492;2024-03-25T07:50:01;19.17;;;5.35;;
64029;SDS011;50277;52.064;4.492;2024-03-25T07:52:27;14.73;;;4.57;;
64029;SDS011;50277;52.064;4.492;2024-03-25T07:54:53;14.35;;;4.80;;
64029;SDS011;50277;52.064;4.492;2024-03-25T07:57:19;16.63;;;4.63;;
64029;SDS011;50277;52.064;4.492;2024-03-25T07:59:44;18.23;;;5.68;;
64029;SDS011;50277;52.064;4.492;2024-03-25T08:02:10;19.30;;;5.68;;
64029;SDS011;50277;52.064;4.492;2024-03-25T08:04:35;16.02;;;5.90;;
64029;SDS011;50277;52.064;4.492;2024-03-25T08:07:00;20.33;;;5.13;;
64029;SDS011;50277;52.064;4.492;2024-03-25T08:09:26;20.63;;;6.32;;
64029;SDS011;50277;52.064;4.492;2024-03-25T08:11:51;13.40;;;5.50;;
64029;SDS011;50277;52.064;4.492;2024-03-25T08:14:17;15.45;;;5.28;;
64029;SDS011;50277;52.064;4.492;2024-03-25T08:16:42;19.83;;;6.20;;
64029;SDS011;50277;52.064;4.492;2024-03-25T08:19:08;16.85;;;5.38;;
64029;SDS011;50277;52.064;4.492;2024-03-25T08:21:33;15.63;;;5.95;;
64029;SDS011;50277;52.064;4.492;2024-03-25T08:23:59;17.13;;;6.40;;
64029;SDS011;50277;52.064;4.492;2024-03-25T08:26:24;14.20;;;6.13;;
64029;SDS011;50277;52.064;4.492;2024-03-25T08:28:49;19.45;;;5.85;;
64029;SDS011;50277;52.064;4.492;2024-03-25T08:31:15;14.65;;;6.25;;
64029;SDS011;50277;52.064;4.492;2024-03-25T08:33:40;14.73;;;5.90;;
64029;SDS011;50277;52.064;4.492;2024-03-25T08:36:06;15.63;;;6.40;;
64029;SDS011;50277;52.064;4.492;2024-03-25T08:38:31;13.75;;;7.10;;
64029;SDS011;50277;52.064;4.492;2024-03-25T08:40:57;15.38;;;6.30;;
64029;SDS011;50277;52.064;4.492;2024-03-25T08:43:22;19.27;;;7.03;;
64029;SDS011;50277;52.064;4.492;2024-03-25T08:45:47;10.88;;;5.65;;
64029;SDS011;50277;52.064;4.492;2024-03-25T08:48:13;10.88;;;5.88;;
64029;SDS011;50277;52.064;4.492;2024-03-25T08:50:38;15.35;;;6.90;;
64029;SDS011;50277;52.064;4.492;2024-03-25T08:53:03;11.40;;;5.82;;
64029;SDS011;50277;52.064;4.492;2024-03-25T08:55:29;12.45;;;6.82;;
64029;SDS011;50277;52.064;4.492;2024-03-25T08:57:55;17.05;;;7.28;;
64029;SDS011;50277;52.064;4.492;2024-03-25T09:00:20;13.90;;;6.60;;
64029;SDS011;50277;52.064;4.492;2024-03-25T09:02:45;12.98;;;5.97;;
64029;SDS011;50277;52.064;4.492;2024-03-25T09:05:11;9.02;;;4.57;;
64029;SDS011;50277;52.064;4.492;2024-03-25T09:07:38;11.27;;;4.53;;
64029;SDS011;50277;52.064;4.492;2024-03-25T09:10:04;8.77;;;4.72;;
64029;SDS011;50277;52.064;4.492;2024-03-25T09:12:48;7.00;;;3.95;;
64029;SDS011;50277;52.064;4.492;2024-03-25T09:15:13;11.27;;;3.70;;
64029;SDS011;50277;52.064;4.492;2024-03-25T09:17:39;8.38;;;3.70;;
64029;SDS011;50277;52.064;4.492;2024-03-25T09:20:05;9.55;;;4.80;;
64029;SDS011;50277;52.064;4.492;2024-03-25T09:22:45;13.50;;;5.68;;
64029;SDS011;50277;52.064;4.492;2024-03-25T09:25:12;14.18;;;5.97;;
64029;SDS011;50277;52.064;4.492;2024-03-25T09:27:38;9.85;;;4.93;;
64029;SDS011;50277;52.064;4.492;2024-03-25T09:30:04;11.63;;;5.18;;
64029;SDS011;50277;52.064;4.492;2024-03-25T09:32:30;12.77;;;5.32;;
64029;SDS011;50277;52.064;4.492;2024-03-25T09:34:56;8.65;;;4.72;;
64029;SDS011;50277;52.064;4.492;2024-03-25T09:37:22;13.43;;;4.78;;
64029;SDS011;50277;52.064;4.492;2024-03-25T09:39:47;13.18;;;4.80;;
64029;SDS011;50277;52.064;4.492;2024-03-25T09:42:14;10.85;;;5.20;;
64029;SDS011;50277;52.064;4.492;2024-03-25T09:44:40;10.53;;;5.03;;
64029;SDS011;50277;52.064;4.492;2024-03-25T09:47:06;9.60;;;5.57;;
64029;SDS011;50277;52.064;4.492;2024-03-25T09:49:32;14.05;;;6.50;;
64029;SDS011;50277;52.064;4.492;2024-03-25T09:51:57;9.43;;;5.03;;
64029;SDS011;50277;52.064;4.492;2024-03-25T09:54:23;12.27;;;6.20;;
64029;SDS011;50277;52.064;4.492;2024-03-25T09:56:48;12.45;;;6.68;;
64029;SDS011;50277;52.064;4.492;2024-03-25T09:59:14;11.25;;;6.05;;
64029;SDS011;50277;52.064;4.492;2024-03-25T10:01:40;13.20;;;6.13;;
64029;SDS011;50277;52.064;4.492;2024-03-25T10:04:05;13.23;;;6.65;;
64029;SDS011;50277;52.064;4.492;2024-03-25T10:06:30;14.13;;;5.85;;
64029;SDS011;50277;52.064;4.492;2024-03-25T10:08:57;11.27;;;6.10;;
64029;SDS011;50277;52.064;4.492;2024-03-25T10:11:22;15.38;;;6.65;;
64029;SDS011;50277;52.064;4.492;2024-03-25T10:13:48;15.70;;;5.93;;
64029;SDS011;50277;52.064;4.492;2024-03-25T10:16:13;17.58;;;7.15;;
64029;SDS011;50277;52.064;4.492;2024-03-25T10:18:38;15.13;;;6.63;;
64029;SDS011;50277;52.064;4.492;2024-03-25T10:21:05;12.82;;;5.97;;
64029;SDS011;50277;52.064;4.492;2024-03-25T10:23:35;12.70;;;5.75;;
64029;SDS011;50277;52.064;4.492;2024-03-25T10:26:05;13.70;;;6.95;;
64029;SDS011;50277;52.064;4.492;2024-03-25T10:28:31;12.52;;;6.53;;
64029;SDS011;50277;52.064;4.492;2024-03-25T10:31:02;15.35;;;7.97;;
64029;SDS011;50277;52.064;4.492;2024-03-25T10:33:28;13.20;;;7.35;;
64029;SDS011;50277;52.064;4.492;2024-03-25T10:35:54;14.25;;;6.55;;
64029;SDS011;50277;52.064;4.492;2024-03-25T10:38:19;12.77;;;6.70;;
64029;SDS011;50277;52.064;4.492;2024-03-25T10:40:46;12.50;;;6.60;;
64029;SDS011;50277;52.064;4.492;2024-03-25T10:43:12;11.18;;;5.97;;
64029;SDS011;50277;52.064;4.492;2024-03-25T10:45:40;10.57;;;6.15;;
64029;SDS011;50277;52.064;4.492;2024-03-25T10:48:10;8.95;;;5.63;;
64029;SDS011;50277;52.064;4.492;2024-03-25T10:50:40;8.27;;;5.57;;
64029;SDS011;50277;52.064;4.492;2024-03-25T10:53:07;14.05;;;5.70;;
64029;SDS011;50277;52.064;4.492;2024-03-25T10:55:33;11.00;;;6.55;;
64029;SDS011;50277;52.064;4.492;2024-03-25T10:58:00;11.55;;;6.93;;
64029;SDS011;50277;52.064;4.492;2024-03-25T11:00:25;16.13;;;7.63;;
64029;SDS011;50277;52.064;4.492;2024-03-25T11:02:51;12.68;;;6.28;;
64029;SDS011;50277;52.064;4.492;2024-03-25T11:05:18;13.77;;;5.85;;
64029;SDS011;50277;52.064;4.492;2024-03-25T11:07:43;12.10;;;7.63;;
64029;SDS011;50277;52.064;4.492;2024-03-25T11:10:09;14.13;;;7.10;;
64029;SDS011;50277;52.064;4.492;2024-03-25T11:12:35;9.88;;;6.38;;
64029;SDS011;50277;52.064;4.492;2024-03-25T11:15:04;9.15;;;5.05;;
64029;SDS011;50277;52.064;4.492;2024-03-25T11:17:31;10.85;;;4.55;;
64029;SDS011;50277;52.064;4.492;2024-03-25T11:20:06;12.18;;;4.88;;
64029;SDS011;50277;52.064;4.492;2024-03-25T11:22:35;5.78;;;4.15;;
64029;SDS011;50277;52.064;4.492;2024-03-25T11:25:07;7.55;;;3.70;;
64029;SDS011;50277;52.064;4.492;2024-03-25T11:27:36;10.32;;;5.50;;
64029;SDS011;50277;52.064;4.492;2024-03-25T11:32:27;7.68;;;4.53;;
64029;SDS011;50277;52.064;4.492;2024-03-25T11:34:53;7.47;;;3.95;;
64029;SDS011;50277;52.064;4.492;2024-03-25T11:37:18;7.53;;;3.80;;
64029;SDS011;50277;52.064;4.492;2024-03-25T11:39:43;8.30;;;4.50;;
64029;SDS011;50277;52.064;4.492;2024-03-25T11:42:09;9.00;;;4.95;;
64029;SDS011;50277;52.064;4.492;2024-03-25T11:44:37;8.00;;;4.93;;
64029;SDS011;50277;52.064;4.492;2024-03-25T11:47:05;11.20;;;6.07;;
64029;SDS011;50277;52.064;4.492;2024-03-25T11:49:32;11.55;;;6.40;;
64029;SDS011;50277;52.064;4.492;2024-03-25T11:52:00;16.65;;;8.15;;
64029;SDS011;50277;52.064;4.492;2024-03-25T11:54:27;16.20;;;7.95;;
64029;SDS011;50277;52.064;4.492;2024-03-25T11:56:53;13.55;;;7.22;;
64029;SDS011;50277;52.064;4.492;2024-03-25T11:59:19;14.55;;;6.47;;
64029;SDS011;50277;52.064;4.492;2024-03-25T12:01:44;10.02;;;6.18;;
64029;SDS011;50277;52.064;4.492;2024-03-25T12:04:15;15.57;;;8.80;;
64029;SDS011;50277;52.064;4.492;2024-03-25T12:06:41;17.33;;;9.32;;
64029;SDS011;50277;52.064;4.492;2024-03-25T12:09:06;18.98;;;10.23;;
64029;SDS011;50277;52.064;4.492;2024-03-25T12:11:51;15.75;;;9.85;;
64029;SDS011;50277;52.064;4.492;2024-03-25T12:14:16;19.52;;;11.38;;
64029;SDS011;50277;52.064;4.492;2024-03-25T12:16:42;19.45;;;10.48;;
64029;SDS011;50277;52.064;4.492;2024-03-25T12:19:07;19.83;;;10.00;;
64029;SDS011;50277;52.064;4.492;2024-03-25T12:21:32;20.13;;;9.85;;
64029;SDS011;50277;52.064;4.492;2024-03-25T12:23:59;18.20;;;9.40;;
64029;SDS011;50277;52.064;4.492;2024-03-25T12:26:24;19.77;;;9.68;;
64029;SDS011;50277;52.064;4.492;2024-03-25T12:28:50;15.85;;;7.90;;
64029;SDS011;50277;52.064;4.492;2024-03-25T12:31:15;12.13;;;6.85;;
64029;SDS011;50277;52.064;4.492;2024-03-25T12:33:41;9.52;;;6.38;;
64029;SDS011;50277;52.064;4.492;2024-03-25T12:36:07;13.25;;;6.75;;
64029;SDS011;50277;52.064;4.492;2024-03-25T12:38:33;11.40;;;6.38;;
64029;SDS011;50277;52.064;4.492;2024-03-25T12:41:09;8.27;;;4.35;;
64029;SDS011;50277;52.064;4.492;2024-03-25T12:43:35;11.93;;;5.07;;
64029;SDS011;50277;52.064;4.492;2024-03-25T12:46:01;12.75;;;5.90;;
64029;SDS011;50277;52.064;4.492;2024-03-25T12:50:55;8.95;;;4.65;;
64029;SDS011;50277;52.064;4.492;2024-03-25T12:53:21;13.93;;;5.72;;
64029;SDS011;50277;52.064;4.492;2024-03-25T12:55:46;9.45;;;5.53;;
64029;SDS011;50277;52.064;4.492;2024-03-25T12:58:12;8.95;;;5.13;;
64029;SDS011;50277;52.064;4.492;2024-03-25T13:00:37;10.38;;;5.45;;
64029;SDS011;50277;52.064;4.492;2024-03-25T13:03:06;11.88;;;5.95;;
64029;SDS011;50277;52.064;4.492;2024-03-25T13:05:32;15.63;;;6.07;;
64029;SDS011;50277;52.064;4.492;2024-03-25T13:07:58;13.18;;;5.95;;
64029;SDS011;50277;52.064;4.492;2024-03-25T13:10:24;12.02;;;6.43;;
64029;SDS011;50277;52.064;4.492;2024-03-25T13:12:49;10.57;;;6.28;;
64029;SDS011;50277;52.064;4.492;2024-03-25T13:15:14;13.88;;;5.75;;
64029;SDS011;50277;52.064;4.492;2024-03-25T13:17:40;14.05;;;6.38;;
64029;SDS011;50277;52.064;4.492;2024-03-25T13:20:05;14.38;;;6.38;;
64029;SDS011;50277;52.064;4.492;2024-03-25T13:22:31;10.35;;;5.55;;
64029;SDS011;50277;52.064;4.492;2024-03-25T13:24:57;10.90;;;6.30;;
64029;SDS011;50277;52.064;4.492;2024-03-25T13:27:23;12.07;;;6.28;;
64029;SDS011;50277;52.064;4.492;2024-03-25T13:29:48;10.80;;;5.95;;
64029;SDS011;50277;52.064;4.492;2024-03-25T13:32:14;11.82;;;5.93;;
64029;SDS011;50277;52.064;4.492;2024-03-25T13:34:39;13.98;;;5.85;;
64029;SDS011;50277;52.064;4.492;2024-03-25T13:37:04;8.48;;;4.75;;
64029;SDS011;50277;52.064;4.492;2024-03-25T13:39:30;11.18;;;5.18;;
64029;SDS011;50277;52.064;4.492;2024-03-25T13:41:55;10.75;;;5.07;;
64029;SDS011;50277;52.064;4.492;2024-03-25T13:44:20;12.50;;;4.97;;
64029;SDS011;50277;52.064;4.492;2024-03-25T13:46:46;8.77;;;4.97;;
64029;SDS011;50277;52.064;4.492;2024-03-25T13:49:11;8.73;;;4.35;;
64029;SDS011;50277;52.064;4.492;2024-03-25T13:51:36;9.88;;;4.30;;
64029;SDS011;50277;52.064;4.492;2024-03-25T13:54:02;10.98;;;4.20;;
64029;SDS011;50277;52.064;4.492;2024-03-25T13:56:27;7.88;;;4.57;;
64029;SDS011;50277;52.064;4.492;2024-03-25T13:58:56;9.20;;;3.92;;
64029;SDS011;50277;52.064;4.492;2024-03-25T14:01:21;7.35;;;3.55;;
64029;SDS011;50277;52.064;4.492;2024-03-25T14:03:47;11.43;;;4.35;;
64029;SDS011;50277;52.064;4.492;2024-03-25T14:06:12;9.43;;;4.30;;
64029;SDS011;50277;52.064;4.492;2024-03-25T14:08:38;8.00;;;4.00;;
64029;SDS011;50277;52.064;4.492;2024-03-25T14:11:03;6.93;;;4.28;;
64029;SDS011;50277;52.064;4.492;2024-03-25T14:13:28;9.90;;;4.07;;
64029;SDS011;50277;52.064;4.492;2024-03-25T14:15:54;8.00;;;3.42;;
64029;SDS011;50277;52.064;4.492;2024-03-25T14:18:19;8.40;;;3.80;;
64029;SDS011;50277;52.064;4.492;2024-03-25T14:20:45;5.72;;;3.10;;
64029;SDS011;50277;52.064;4.492;2024-03-25T14:23:11;8.95;;;3.38;;
64029;SDS011;50277;52.064;4.492;2024-03-25T14:25:37;9.63;;;3.28;;
64029;SDS011;50277;52.064;4.492;2024-03-25T14:28:03;6.97;;;3.10;;
64029;SDS011;50277;52.064;4.492;2024-03-25T14:30:28;6.22;;;3.00;;
64029;SDS011;50277;52.064;4.492;2024-03-25T14:32:54;8.95;;;3.22;;
64029;SDS011;50277;52.064;4.492;2024-03-25T14:35:20;9.70;;;3.50;;
64029;SDS011;50277;52.064;4.492;2024-03-25T14:37:46;5.95;;;3.00;;